Time;durP1;ratioP1;P1;durP2;ratioP2;P2;SDS_P1;SDS_P2;PMS_P1;PMS_P2;Temp;Humidity;BMP_temperature;BMP_pressure;BME280_temperature;BME280_humidity;BME280_pressure;Samples;Min_cycle;Max_cycle;Signal;HPM_P1;HPM_P2
2022/08/24 00:02:37;;;;;;;52.30;42.55;;;19.00;99.90;;;;;;5071083;28;20067;-83
2022/08/24 00:05:22;;;;;;;47.50;41.28;;;;;;;;;;5058861;28;20040;-83
2022/08/24 00:08:06;;;;;;;54.30;43.75;;;19.10;99.90;;;;;;5070483;28;20109;-83
2022/08/24 00:10:51;;;;;;;66.38;47.70;;;18.90;99.90;;;;;;5070262;28;20094;-83
2022/08/24 00:13:37;;;;;;;57.22;45.78;;;;;;;;;;5071453;28;20504;-85
2022/08/24 00:16:22;;;;;;;54.97;44.20;;;18.70;99.90;;;;;;5071516;28;20086;-83
2022/08/24 00:19:06;;;;;;;62.50;48.15;;;18.80;99.90;;;;;;5058812;28;20094;-82
2022/08/24 00:21:51;;;;;;;48.20;41.60;;;18.70;99.90;;;;;;5071075;28;20094;-83
2022/08/24 00:24:35;;;;;;;50.38;39.88;;;18.80;99.90;;;;;;5075481;28;20504;-82
2022/08/24 00:27:20;;;;;;;57.15;42.88;;;18.90;99.90;;;;;;5080441;28;20186;-83
2022/08/24 00:30:07;;;;;;;58.33;45.70;;;18.80;99.90;;;;;;5070956;28;20038;-82
2022/08/24 00:32:53;;;;;;;58.13;45.75;;;19.10;99.90;;;;;;5094849;28;21528;-83
2022/08/24 00:35:37;;;;;;;69.85;49.78;;;18.60;99.90;;;;;;5095525;28;20089;-83
2022/08/24 00:38:21;;;;;;;52.90;41.42;;;19.40;99.90;;;;;;5087553;28;20420;-83
2022/08/24 00:41:06;;;;;;;62.38;47.30;;;18.50;99.90;;;;;;5077647;28;20166;-83
2022/08/24 00:43:57;;;;;;;59.40;45.60;;;18.40;99.90;;;;;;5073587;28;20464;-83
2022/08/24 00:46:57;;;;;;;64.38;44.90;;;18.50;99.90;;;;;;5074703;28;20044;-85
2022/08/24 00:50:04;;;;;;;62.47;46.92;;;18.40;99.90;;;;;;5074282;28;20059;-86
2022/08/24 00:52:55;;;;;;;66.55;49.75;;;18.20;99.90;;;;;;5069903;28;20504;-83
2022/08/24 00:55:47;;;;;;;62.67;48.05;;;18.40;99.90;;;;;;5076798;28;20062;-82
2022/08/24 00:58:45;;;;;;;54.22;41.90;;;18.40;99.90;;;;;;5095090;28;20127;-83
2022/08/24 01:01:32;;;;;;;57.17;45.30;;;18.40;99.90;;;;;;5094002;28;20501;-83
2022/08/24 01:04:27;;;;;;;42.60;36.50;;;19.20;99.90;;;;;;5087042;28;20039;-83
2022/08/24 01:07:12;;;;;;;48.42;37.00;;;18.20;99.90;;;;;;5070784;28;20162;-83
2022/08/24 01:09:59;;;;;;;52.13;43.00;;;18.20;99.90;;;;;;5094175;28;20076;-83
2022/08/24 01:12:48;;;;;;;48.03;40.17;;;18.20;99.90;;;;;;5094723;28;20105;-86
2022/08/24 01:15:38;;;;;;;51.78;40.97;;;18.00;99.90;;;;;;5088922;28;20035;-83
2022/08/24 01:21:54;;;;;;;51.55;40.47;;;18.20;99.90;;;;;;5094649;28;20042;-83
2022/08/24 01:24:39;;;;;;;54.75;42.92;;;18.00;99.90;;;;;;5094591;28;20043;-83
2022/08/24 01:27:24;;;;;;;51.13;40.85;;;18.10;99.90;;;;;;5091278;28;20503;-83
2022/08/24 01:30:12;;;;;;;52.78;41.70;;;18.00;99.90;;;;;;5085390;28;20575;-82
2022/08/24 01:33:02;;;;;;;53.70;43.00;;;18.10;99.90;;;;;;5066504;28;20052;-83
2022/08/24 01:35:47;;;;;;;49.00;40.00;;;;;;;;;;5089983;28;20446;-84
2022/08/24 01:38:32;;;;;;;54.63;43.08;;;18.20;99.90;;;;;;5094283;28;20491;-83
2022/08/24 01:41:17;;;;;;;50.97;39.65;;;18.10;99.90;;;;;;5074786;28;20040;-83
2022/08/24 01:44:01;;;;;;;49.38;41.38;;;17.50;99.90;;;;;;5072541;28;20047;-83
2022/08/24 01:46:52;;;;;;;48.15;40.50;;;17.90;99.90;;;;;;5073121;28;20119;-83
2022/08/24 01:49:43;;;;;;;57.03;45.65;;;18.10;99.90;;;;;;5073720;28;20485;-83
2022/08/24 01:52:27;;;;;;;63.78;47.67;;;18.00;99.90;;;;;;5073669;28;20031;-83
2022/08/24 01:55:15;;;;;;;57.65;43.00;;;18.10;99.90;;;;;;5063201;28;20120;-83
2022/08/24 01:58:00;;;;;;;57.78;43.72;;;18.00;99.90;;;;;;5072682;28;20120;-83
2022/08/24 02:00:45;;;;;;;53.22;44.13;;;18.30;99.90;;;;;;5073457;28;20031;-82
2022/08/24 02:03:29;;;;;;;51.08;41.45;;;18.10;99.90;;;;;;5073426;28;20094;-83
2022/08/24 02:06:17;;;;;;;58.42;44.53;;;18.00;99.90;;;;;;5072785;28;20460;-85
2022/08/24 02:09:02;;;;;;;65.57;47.15;;;18.00;99.90;;;;;;5062027;28;20094;-83
2022/08/24 02:11:47;;;;;;;69.72;49.85;;;17.90;99.90;;;;;;5073145;28;20440;-82
2022/08/24 02:14:32;;;;;;;67.90;48.05;;;18.00;99.90;;;;;;5090997;28;20063;-82
2022/08/24 02:17:17;;;;;;;64.57;47.10;;;;;;;;;;5087739;28;20490;-83
2022/08/24 02:20:03;;;;;;;61.28;46.17;;;18.00;99.90;;;;;;5080667;28;20414;-83
2022/08/24 02:22:49;;;;;;;60.92;45.65;;;17.80;99.90;;;;;;5067345;28;20065;-82
2022/08/24 02:25:33;;;;;;;62.25;44.10;;;17.90;99.90;;;;;;5093184;28;20059;-83
2022/08/24 02:28:19;;;;;;;52.58;40.92;;;17.80;99.90;;;;;;5093105;28;20043;-82
2022/08/24 02:31:04;;;;;;;54.88;42.55;;;17.80;99.90;;;;;;5076194;28;20058;-82
2022/08/24 02:33:48;;;;;;;51.67;40.88;;;18.00;99.90;;;;;;5085893;28;20093;-82
2022/08/24 02:36:33;;;;;;;55.47;40.90;;;17.60;99.90;;;;;;5092265;28;20491;-82
2022/08/24 02:39:17;;;;;;;56.10;39.88;;;17.60;99.90;;;;;;5089050;28;20403;-83
2022/08/24 02:42:01;;;;;;;54.25;43.17;;;18.00;99.90;;;;;;5073846;28;20138;-83
2022/08/24 02:44:46;;;;;;;57.47;43.03;;;17.90;99.90;;;;;;5083447;28;20416;-83
2022/08/24 02:47:31;;;;;;;60.40;44.22;;;17.40;99.90;;;;;;5092733;28;20520;-83
2022/08/24 02:50:16;;;;;;;65.78;46.50;;;17.50;99.90;;;;;;5092327;28;20514;-83
2022/08/24 02:53:00;;;;;;;65.22;45.00;;;17.90;99.90;;;;;;5092419;28;20425;-84
2022/08/24 02:55:45;;;;;;;72.38;47.58;;;17.60;99.90;;;;;;5079303;28;20042;-83
2022/08/24 02:58:29;;;;;;;66.63;46.55;;;;;;;;;;5092783;28;20512;-83
2022/08/24 03:01:15;;;;;;;64.88;44.35;;;17.50;99.90;;;;;;5092391;28;20439;-83
2022/08/24 03:04:00;;;;;;;44.83;36.83;;;;;;;;;;5092031;28;20467;-86
2022/08/24 03:06:44;;;;;;;46.30;37.55;;;17.80;99.90;;;;;;5087092;28;20043;-83
2022/08/24 03:09:28;;;;;;;57.58;42.53;;;18.10;99.90;;;;;;5064623;28;20534;-83
2022/08/24 03:12:13;;;;;;;52.85;39.28;;;17.70;99.90;;;;;;5052152;28;20401;-83
2022/08/24 03:14:58;;;;;;;45.28;37.33;;;17.40;99.90;;;;;;5093894;28;20066;-83
2022/08/24 03:17:42;;;;;;;52.08;39.58;;;17.40;99.90;;;;;;5092311;28;20043;-83
2022/08/24 03:20:26;;;;;;;55.83;41.00;;;;;;;;;;5087100;28;20077;-84
2022/08/24 03:23:10;;;;;;;55.13;40.92;;;17.40;99.90;;;;;;5090907;28;20043;-83
2022/08/24 03:25:55;;;;;;;57.75;40.83;;;17.40;99.90;;;;;;5057005;28;20094;-83
2022/08/24 03:28:40;;;;;;;57.55;42.42;;;17.10;99.90;;;;;;5068409;28;20086;-83
2022/08/24 03:31:24;;;;;;;57.50;42.33;;;;;;;;;;5071783;28;20507;-83
2022/08/24 03:34:12;;;;;;;63.60;43.80;;;17.30;99.90;;;;;;5058183;28;20450;-83
2022/08/24 03:36:56;;;;;;;50.05;39.17;;;17.30;99.90;;;;;;5071997;28;20539;-83
2022/08/24 03:39:40;;;;;;;48.88;38.45;;;17.10;99.90;;;;;;5071109;28;20059;-83
2022/08/24 03:42:25;;;;;;;52.53;41.60;;;17.50;99.90;;;;;;5070440;28;20113;-83
2022/08/24 03:45:09;;;;;;;49.15;39.10;;;17.20;99.90;;;;;;5055049;28;20043;-83
2022/08/24 03:47:54;;;;;;;51.83;40.35;;;17.20;99.90;;;;;;5085217;28;20036;-82
2022/08/24 03:50:39;;;;;;;49.10;37.83;;;17.20;99.90;;;;;;5092833;28;20561;-83
2022/08/24 03:53:23;;;;;;;52.72;39.67;;;17.50;99.90;;;;;;5090348;28;20506;-83
2022/08/24 03:56:08;;;;;;;55.33;42.65;;;17.10;99.90;;;;;;5072145;28;20036;-84
2022/08/24 03:58:53;;;;;;;55.05;40.15;;;17.20;99.90;;;;;;5080103;28;20035;-83
2022/08/24 04:01:38;;;;;;;58.30;42.22;;;16.90;99.90;;;;;;5096233;28;20043;-83
2022/08/24 04:04:22;;;;;;;47.42;37.78;;;17.20;99.90;;;;;;5095752;28;20516;-82
2022/08/24 04:07:07;;;;;;;51.65;38.38;;;;;;;;;;5095640;28;20089;-87
2022/08/24 04:09:51;;;;;;;44.30;34.90;;;17.30;99.90;;;;;;5088484;28;20062;-83
2022/08/24 04:12:35;;;;;;;44.95;35.05;;;18.00;99.90;;;;;;5094616;28;20412;-83
2022/08/24 04:15:19;;;;;;;46.55;38.03;;;17.10;99.90;;;;;;5095236;28;20557;-83
2022/08/24 04:18:04;;;;;;;52.35;40.22;;;17.10;99.90;;;;;;5092564;28;20031;-83
2022/08/24 04:20:49;;;;;;;52.60;39.50;;;17.30;99.90;;;;;;5070299;28;20047;-83
2022/08/24 04:23:33;;;;;;;54.72;39.30;;;17.00;99.90;;;;;;5075337;28;20048;-83
2022/08/24 04:26:19;;;;;;;55.72;41.88;;;16.90;99.90;;;;;;5074854;28;20518;-83
2022/08/24 04:29:06;;;;;;;52.22;39.75;;;17.10;99.90;;;;;;5074485;28;20538;-82
2022/08/24 04:31:51;;;;;;;51.65;37.67;;;17.00;99.90;;;;;;5074208;28;20102;-82
2022/08/24 04:34:35;;;;;;;43.50;34.92;;;17.00;99.90;;;;;;5073581;28;20167;-83
2022/08/24 04:37:20;;;;;;;45.90;35.75;;;17.00;99.90;;;;;;5074745;28;20044;-83
2022/08/24 04:40:06;;;;;;;49.25;39.78;;;16.90;99.90;;;;;;5075131;28;20059;-83
2022/08/24 04:42:51;;;;;;;56.22;41.47;;;17.00;99.90;;;;;;5075134;28;20091;-83
2022/08/24 04:45:41;;;;;;;60.22;43.38;;;17.20;99.90;;;;;;5073525;28;20447;-83
2022/08/24 04:48:25;;;;;;;55.63;41.80;;;17.10;99.90;;;;;;5072623;28;20081;-83
2022/08/24 04:51:11;;;;;;;54.72;41.25;;;17.20;99.90;;;;;;5089859;28;20043;-82
2022/08/24 04:53:56;;;;;;;64.63;43.60;;;;;;;;;;5084148;28;20039;-82
2022/08/24 04:56:40;;;;;;;46.63;37.35;;;17.10;99.90;;;;;;5076696;28;20499;-86
2022/08/24 04:59:24;;;;;;;50.92;39.58;;;17.80;99.90;;;;;;5078825;28;20036;-86
2022/08/24 05:02:09;;;;;;;55.20;41.97;;;17.20;99.90;;;;;;5060983;28;20119;-82
2022/08/24 05:04:56;;;;;;;48.40;37.92;;;17.20;99.90;;;;;;5072570;28;20556;-82
2022/08/24 05:07:40;;;;;;;44.40;37.53;;;17.40;99.90;;;;;;5073619;28;20082;-83
2022/08/24 05:10:25;;;;;;;47.85;37.05;;;17.90;99.90;;;;;;5072420;28;20031;-83
2022/08/24 05:13:10;;;;;;;43.35;36.25;;;17.20;99.90;;;;;;5072757;28;20103;-83
2022/08/24 05:15:54;;;;;;;44.80;36.35;;;17.50;99.90;;;;;;5073107;28;20085;-82
2022/08/24 05:18:39;;;;;;;41.45;34.85;;;17.40;99.90;;;;;;5069083;28;20047;-83
2022/08/24 05:21:24;;;;;;;45.33;38.20;;;17.00;99.90;;;;;;5070728;28;20051;-83
2022/08/24 05:24:09;;;;;;;47.47;37.67;;;17.30;99.90;;;;;;5073950;28;20059;-83
2022/08/24 05:26:53;;;;;;;50.58;39.05;;;17.40;99.90;;;;;;5073869;28;20048;-83
2022/08/24 05:29:37;;;;;;;48.47;38.35;;;17.60;99.90;;;;;;5071346;28;20094;-83
2022/08/24 05:32:21;;;;;;;42.13;35.78;;;17.60;99.90;;;;;;5073450;28;20039;-83
2022/08/24 05:35:06;;;;;;;38.97;34.60;;;17.70;99.90;;;;;;5073957;28;20060;-82
2022/08/24 05:37:51;;;;;;;44.83;38.10;;;17.50;99.90;;;;;;5073690;28;20062;-83
2022/08/24 05:40:36;;;;;;;45.90;37.28;;;17.90;99.90;;;;;;5072754;28;20495;-83
2022/08/24 05:43:20;;;;;;;48.58;39.17;;;;;;;;;;5071841;28;20067;-86
2022/08/24 05:46:05;;;;;;;41.80;37.25;;;17.90;99.90;;;;;;5073463;28;20446;-82
2022/08/24 05:48:49;;;;;;;42.83;38.17;;;18.20;99.90;;;;;;5073592;28;20062;-83
2022/08/24 05:51:34;;;;;;;47.60;39.97;;;18.10;99.90;;;;;;5071959;28;20102;-83
2022/08/24 05:54:19;;;;;;;48.17;38.00;;;18.20;99.90;;;;;;5071583;28;20051;-82
2022/08/24 05:57:05;;;;;;;51.30;37.00;;;18.20;99.90;;;;;;5072956;28;20511;-82
2022/08/24 05:59:50;;;;;;;50.00;39.70;;;;;;;;;;5072241;28;20124;-83
2022/08/24 06:02:34;;;;;;;47.83;39.03;;;18.20;99.90;;;;;;5071851;28;20047;-83
2022/08/24 06:05:18;;;;;;;48.35;39.13;;;19.10;99.90;;;;;;5071945;28;20123;-83
2022/08/24 06:08:02;;;;;;;52.47;42.53;;;18.60;99.90;;;;;;5070291;28;20035;-83
2022/08/24 06:10:47;;;;;;;58.10;44.00;;;18.80;99.90;;;;;;5072592;28;20040;-83
2022/08/24 06:13:33;;;;;;;50.28;37.78;;;19.00;99.90;;;;;;5071276;28;20056;-83
2022/08/24 06:16:18;;;;;;;50.08;41.58;;;;;;;;;;5072157;28;20043;-84
2022/08/24 06:19:02;;;;;;;43.42;38.65;;;19.20;99.90;;;;;;5072462;28;20078;-83
2022/08/24 06:21:49;;;;;;;46.97;39.63;;;19.60;99.90;;;;;;5072164;28;20039;-83
2022/08/24 06:27:40;;;;;;;43.13;35.67;;;19.50;99.90;;;;;;5071841;28;20048;-83
2022/08/24 06:30:25;;;;;;;42.63;34.40;;;;;;;;;;5072349;28;20093;-85
2022/08/24 06:33:09;;;;;;;41.40;35.80;;;19.80;99.90;;;;;;5070694;28;20553;-83
2022/08/24 06:35:53;;;;;;;39.65;34.50;;;20.20;99.90;;;;;;5072242;28;20070;-82
2022/08/24 06:38:38;;;;;;;39.10;33.13;;;19.90;99.90;;;;;;5071177;28;20067;-84
2022/08/24 06:41:24;;;;;;;36.05;32.20;;;20.10;99.90;;;;;;5072295;28;20043;-83
2022/08/24 06:44:08;;;;;;;34.08;30.00;;;20.30;99.90;;;;;;5069463;28;20118;-83
2022/08/24 06:46:53;;;;;;;34.78;30.17;;;20.40;99.90;;;;;;5070821;28;20385;-83
2022/08/24 06:49:37;;;;;;;34.60;30.67;;;20.50;99.90;;;;;;5072658;28;20066;-83
2022/08/24 06:52:22;;;;;;;28.55;25.60;;;;;;;;;;5071950;28;20090;-83
2022/08/24 06:55:06;;;;;;;29.45;25.95;;;20.80;99.90;;;;;;5072048;28;20475;-83
2022/08/24 06:57:51;;;;;;;28.70;24.77;;;21.00;99.90;;;;;;5071564;28;20060;-82
2022/08/24 07:00:35;;;;;;;29.48;23.30;;;21.10;99.90;;;;;;5071795;28;20070;-84
2022/08/24 07:03:19;;;;;;;27.88;23.65;;;21.00;99.90;;;;;;5066220;28;20043;-82
2022/08/24 07:06:05;;;;;;;25.95;21.83;;;21.40;99.90;;;;;;5065898;28;20051;-83
2022/08/24 07:08:50;;;;;;;23.20;20.70;;;21.80;99.90;;;;;;5071878;28;20063;-82
2022/08/24 07:11:34;;;;;;;21.88;18.83;;;21.80;99.90;;;;;;5069797;28;20071;-84
2022/08/24 07:14:20;;;;;;;24.13;18.65;;;;;;;;;;5071260;28;20451;-84
2022/08/24 07:17:04;;;;;;;20.88;15.93;;;22.20;99.90;;;;;;5072305;28;20538;-84
2022/08/24 07:19:49;;;;;;;18.65;13.52;;;23.10;99.90;;;;;;5071482;28;20067;-83
2022/08/24 07:22:34;;;;;;;13.98;10.00;;;;;;;;;;5071973;28;20039;-87
2022/08/24 07:25:18;;;;;;;17.23;9.70;;;26.10;99.90;;;;;;5072187;28;20093;-84
2022/08/24 07:28:03;;;;;;;17.45;9.35;;;;;;;;;;5056827;28;20469;-84
2022/08/24 07:30:48;;;;;;;16.90;11.43;;;;;;;;;;5071340;28;20036;-85
2022/08/24 07:33:33;;;;;;;20.58;10.95;;;;;;;;;;5071756;28;20102;-85
2022/08/24 07:36:18;;;;;;;15.95;8.32;;;;;;;;;;5072087;28;20073;-84
2022/08/24 07:39:04;;;;;;;14.57;8.98;;;27.20;99.90;;;;;;5072069;28;20443;-83
2022/08/24 07:41:49;;;;;;;13.43;8.52;;;;;;;;;;5071339;28;20036;-83
2022/08/24 07:44:34;;;;;;;15.38;8.10;;;;;;;;;;5071172;28;20039;-83
2022/08/24 07:47:20;;;;;;;12.27;7.15;;;;;;;;;;5070589;28;20039;-83
2022/08/24 07:50:04;;;;;;;17.23;7.80;;;28.60;99.90;;;;;;5088707;28;20035;-83
2022/08/24 07:52:49;;;;;;;14.25;7.90;;;;;;;;;;5090564;28;20097;-83
2022/08/24 07:55:33;;;;;;;13.18;6.60;;;;;;;;;;5091984;28;20054;-83
2022/08/24 07:58:18;;;;;;;11.63;6.22;;;;;;;;;;5092021;28;20085;-84
2022/08/24 08:01:04;;;;;;;11.45;7.43;;;28.70;99.90;;;;;;5091780;28;20499;-84
2022/08/24 08:03:49;;;;;;;8.90;5.68;;;29.20;99.40;;;;;;5091301;28;20043;-84
2022/08/24 08:06:33;;;;;;;9.43;6.40;;;;;;;;;;5066997;28;20031;-84
2022/08/24 08:09:18;;;;;;;12.65;7.32;;;;;;;;;;5053870;28;20523;-85
2022/08/24 08:12:03;;;;;;;9.57;6.13;;;;;;;;;;5059839;28;20052;-83
2022/08/24 08:14:48;;;;;;;10.50;6.55;;;;;;;;;;5070680;28;20090;-83
2022/08/24 08:17:33;;;;;;;8.60;5.40;;;;;;;;;;5070806;28;20035;-83
2022/08/24 08:20:17;;;;;;;9.13;5.63;;;;;;;;;;5071748;28;20526;-83
2022/08/24 08:26:07;;;;;;;10.35;5.47;;;29.40;96.50;;;;;;5071039;28;20048;-83
2022/08/24 08:28:52;;;;;;;6.85;4.60;;;;;;;;;;5070102;28;20055;-83
2022/08/24 08:31:37;;;;;;;23.35;12.20;;;;;;;;;;5070451;28;20036;-84
2022/08/24 08:34:22;;;;;;;9.75;5.30;;;;;;;;;;5071641;28;20105;-82
2022/08/24 08:37:07;;;;;;;11.75;4.47;;;;;;;;;;5071162;28;20078;-83
2022/08/24 08:39:51;;;;;;;9.07;5.88;;;29.00;96.40;;;;;;5070852;28;20488;-82
2022/08/24 08:43:20;;;;;;;11.77;6.38;;;28.60;95.40;;;;;;5072239;28;20082;-82
2022/08/24 08:46:04;;;;;;;11.35;6.55;;;;;;;;;;5012792;28;20713;-83
2022/08/24 08:49:16;;;;;;;12.85;6.72;;;28.50;96.20;;;;;;5018898;28;20044;-83
2022/08/24 08:52:23;;;;;;;32.35;16.55;;;;;;;;;;5094577;28;20107;-83
2022/08/24 08:55:14;;;;;;;24.58;14.27;;;;;;;;;;5094538;28;20051;-83
2022/08/24 08:58:05;;;;;;;13.05;6.00;;;;;;;;;;5094549;28;20031;-83
2022/08/24 09:01:00;;;;;;;10.02;5.50;;;;;;;;;;5093540;28;20460;-84
2022/08/24 09:03:54;;;;;;;8.80;4.55;;;;;;;;;;5094810;28;20085;-83
2022/08/24 09:06:51;;;;;;;9.25;3.75;;;;;;;;;;5095006;28;20051;-84
2022/08/24 09:09:42;;;;;;;5.18;3.95;;;29.20;94.30;;;;;;5073475;28;20047;-83
2022/08/24 09:12:50;;;;;;;7.72;3.42;;;28.90;97.30;;;;;;5081084;28;20101;-82
2022/08/24 09:16:05;;;;;;;7.43;3.63;;;29.90;93.50;;;;;;5070042;28;20098;-82
2022/08/24 09:19:16;;;;;;;8.68;3.90;;;29.90;92.30;;;;;;5074046;28;20515;-88
2022/08/24 09:22:18;;;;;;;8.43;3.58;;;29.90;99.90;;;;;;5067501;28;20086;-83
2022/08/24 09:25:19;;;;;;;5.75;3.40;;;29.60;92.00;;;;;;5073905;28;20079;-82
2022/08/24 09:28:04;;;;;;;6.75;3.95;;;;;;;;;;5073678;28;20055;-82
2022/08/24 09:31:04;;;;;;;5.00;3.38;;;;;;;;;;5074129;28;20035;-87
2022/08/24 09:34:09;;;;;;;8.25;3.63;;;;;;;;;;5074230;28;20538;-83
2022/08/24 09:37:08;;;;;;;9.48;4.63;;;30.20;93.60;;;;;;5072679;28;20404;-85
2022/08/24 09:40:21;;;;;;;5.40;3.33;;;29.90;91.80;;;;;;5073694;28;20081;-87
2022/08/24 09:43:35;;;;;;;8.15;3.15;;;30.70;99.90;;;;;;5073274;28;20040;-84
2022/08/24 09:46:38;;;;;;;;;;;29.90;91.30;;;;;;5074384;28;20054;-83
2022/08/24 09:49:31;;;;;;;6.63;2.63;;;29.60;99.90;;;;;;5075837;28;20292;-83
2022/08/24 09:52:31;;;;;;;;;;;29.90;91.80;;;;;;5069680;28;20071;-83
2022/08/24 09:55:25;;;;;;;5.78;2.65;;;29.50;91.10;;;;;;5072621;28;20330;-83
2022/08/24 09:58:49;;;;;;;8.02;2.42;;;30.30;90.90;;;;;;5066556;28;20041;-85
2022/08/24 10:01:44;;;;;;;6.93;2.50;;;31.00;96.40;;;;;;5066998;28;20491;-83
2022/08/24 10:04:54;;;;;;;4.68;2.20;;;30.60;89.80;;;;;;5072145;28;20127;-84
2022/08/24 10:07:39;;;;;;;6.28;2.17;;;;;;;;;;5073684;28;20044;-84
2022/08/24 10:10:23;;;;;;;4.50;2.22;;;;;;;;;;5073849;28;20082;-83
2022/08/24 10:13:29;;;;;;;5.32;2.13;;;30.60;93.60;;;;;;5072970;28;20076;-82
2022/08/24 10:16:37;;;;;;;4.05;2.22;;;30.90;94.60;;;;;;5065583;28;20496;-81
2022/08/24 10:19:22;;;;;;;7.18;2.50;;;;;;;;;;5071183;28;20542;-83
2022/08/24 10:22:40;;;;;;;4.78;1.98;;;30.70;86.00;;;;;;5073090;28;20036;-81
2022/08/24 10:25:30;;;;;;;2.85;1.65;;;30.70;91.40;;;;;;5072348;28;20047;-84
2022/08/24 10:28:33;;;;;;;5.55;2.25;;;30.90;83.80;;;;;;5072545;28;20412;-83
2022/08/24 10:31:33;;;;;;;3.33;1.60;;;30.40;91.70;;;;;;5072451;28;20086;-83
2022/08/24 10:34:39;;;;;;;2.75;1.58;;;30.60;91.50;;;;;;5068840;28;20462;-83
2022/08/24 10:37:48;;;;;;;4.68;1.70;;;31.30;91.80;;;;;;5071907;28;20392;-85
2022/08/24 10:40:43;;;;;;;5.97;1.95;;;31.30;84.80;;;;;;5069262;28;20044;-84
2022/08/24 10:43:50;;;;;;;6.22;2.13;;;31.40;83.50;;;;;;5071364;28;20043;-84
2022/08/24 10:46:51;;;;;;;5.03;2.28;;;31.40;83.20;;;;;;5072214;28;20152;-84
2022/08/24 10:49:35;;;;;;;3.22;2.28;;;;;;;;;;5073182;28;20537;-83
2022/08/24 10:52:41;;;;;;;6.03;2.38;;;31.30;93.60;;;;;;5067024;28;20078;-84
2022/08/24 10:55:30;;;;;;;5.68;1.90;;;31.10;82.00;;;;;;5066729;28;20044;-84
2022/08/24 10:58:39;;;;;;;3.53;1.88;;;30.90;93.30;;;;;;5071201;28;20439;-84
2022/08/24 11:01:31;;;;;;;7.63;2.42;;;31.60;93.50;;;;;;5070385;28;20034;-84
2022/08/24 11:04:27;;;;;;;3.80;1.98;;;31.20;82.50;;;;;;5069342;28;20062;-83
2022/08/24 11:07:20;;;;;;;3.13;1.85;;;30.90;93.50;;;;;;5070513;28;20031;-84
2022/08/24 11:10:08;;;;;;;2.88;1.73;;;31.40;81.90;;;;;;5071770;28;20487;-87
2022/08/24 11:12:53;;;;;;;3.42;1.30;;;;;;;;;;5069393;28;20063;-83
2022/08/24 11:15:50;;;;;;;6.13;1.70;;;31.80;81.00;;;;;;5071813;28;20516;-84
2022/08/24 11:18:55;;;;;;;5.28;2.03;;;31.40;91.20;;;;;;5071844;28;20082;-84
2022/08/24 11:21:47;;;;;;;3.33;1.85;;;31.80;91.30;;;;;;5065112;28;20040;-85
2022/08/24 11:24:42;;;;;;;6.53;1.98;;;31.70;90.50;;;;;;5071585;28;20579;-84
2022/08/24 11:27:40;;;;;;;3.53;1.70;;;32.60;89.70;;;;;;5071241;28;20090;-85
2022/08/24 11:30:28;;;;;;;2.97;1.40;;;32.30;77.40;;;;;;5075377;28;20086;-84
2022/08/24 11:33:43;;;;;;;6.68;1.50;;;32.00;88.50;;;;;;5069603;28;20507;-84
2022/08/24 11:36:30;;;;;;;2.88;1.60;;;32.50;75.60;;;;;;5070324;28;20040;-84
2022/08/24 11:39:36;;;;;;;2.30;1.40;;;32.60;74.30;;;;;;5070236;28;20086;-85
2022/08/24 11:42:49;;;;;;;3.95;1.55;;;32.30;72.70;;;;;;5069571;28;20400;-85
2022/08/24 11:45:58;;;;;;;3.03;1.40;;;32.30;85.60;;;;;;5068705;28;20035;-84
2022/08/24 11:49:00;;;;;;;3.10;1.52;;;31.30;86.10;;;;;;5069834;28;20404;-85
2022/08/24 11:52:02;;;;;;;4.00;1.70;;;30.20;86.00;;;;;;5073907;28;20542;-84
2022/08/24 11:54:47;;;;;;;4.20;1.50;;;;;;;;;;5070664;28;20082;-85
2022/08/24 11:57:56;;;;;;;3.15;1.38;;;30.20;87.40;;;;;;5070828;28;20072;-85
2022/08/24 12:00:56;;;;;;;3.42;1.65;;;30.60;88.10;;;;;;5069845;28;20530;-85
2022/08/24 12:04:03;;;;;;;4.90;1.85;;;30.20;85.60;;;;;;5071220;28;20135;-85
2022/08/24 12:06:48;;;;;;;4.57;1.60;;;;;;;;;;5071374;28;20103;-86
2022/08/24 12:10:03;;;;;;;4.00;1.65;;;30.60;77.60;;;;;;5070815;28;20228;-84
2022/08/24 12:13:02;;;;;;;3.42;1.50;;;30.50;86.20;;;;;;5070851;28;20075;-86
2022/08/24 12:16:04;;;;;;;5.07;1.90;;;31.40;84.50;;;;;;5070586;28;20130;-85
2022/08/24 12:18:58;;;;;;;2.67;1.55;;;31.80;75.80;;;;;;5074193;28;20044;-85
2022/08/24 12:21:45;;;;;;;4.00;1.60;;;32.10;73.90;;;;;;5066670;28;20043;-85
2022/08/24 12:24:30;;;;;;;2.50;1.27;;;;;;;;;;5074845;28;20495;-85
2022/08/24 12:27:24;;;;;;;2.25;1.23;;;32.10;84.80;;;;;;5075035;28;20082;-85
2022/08/24 12:30:15;;;;;;;2.40;1.25;;;32.00;81.30;;;;;;5075422;28;20062;-86
2022/08/24 12:33:04;;;;;;;2.38;1.10;;;32.40;71.10;;;;;;5075569;28;20174;-84
2022/08/24 12:35:55;;;;;;;2.97;1.30;;;32.10;71.30;;;;;;5063976;28;20058;-84
2022/08/24 12:38:48;;;;;;;2.58;1.23;;;31.60;81.00;;;;;;5074521;28;20554;-83
2022/08/24 12:41:40;;;;;;;3.42;1.42;;;31.50;73.80;;;;;;5073113;28;20031;-84
2022/08/24 12:44:50;;;;;;;3.67;1.55;;;31.50;73.70;;;;;;5074216;28;20119;-84
2022/08/24 12:47:55;;;;;;;3.25;1.20;;;31.70;73.80;;;;;;5069851;28;20043;-84
2022/08/24 12:51:12;;;;;;;2.85;1.50;;;31.60;83.10;;;;;;5069801;28;20044;-86
2022/08/24 12:54:18;;;;;;;4.03;1.77;;;32.40;81.70;;;;;;5071659;28;20059;-85
2022/08/24 12:57:21;;;;;;;3.10;1.50;;;33.30;79.30;;;;;;5073394;28;20396;-84
2022/08/24 13:00:12;;;;;;;3.20;1.25;;;33.60;80.30;;;;;;5071780;28;20032;-84
2022/08/24 13:03:05;;;;;;;2.28;1.20;;;33.00;69.40;;;;;;5072377;28;20495;-85
2022/08/24 13:05:55;;;;;;;2.55;1.00;;;33.30;68.30;;;;;;5074131;28;20039;-85
2022/08/24 13:08:43;;;;;;;2.30;1.00;;;33.10;67.40;;;;;;5073706;28;20455;-85
2022/08/24 13:11:32;;;;;;;4.80;1.58;;;32.80;67.80;;;;;;5072738;28;20427;-86
2022/08/24 13:14:20;;;;;;;4.07;1.40;;;32.80;80.80;;;;;;5071428;28;20101;-84
2022/08/24 13:17:05;;;;;;;3.67;1.60;;;;;;;;;;5074360;28;20169;-86
2022/08/24 13:20:30;;;;;;;3.30;1.40;;;32.30;69.20;;;;;;5074603;28;20041;-84
2022/08/24 13:23:20;;;;;;;4.30;1.40;;;32.40;81.70;;;;;;5066941;28;20062;-89
2022/08/24 13:26:27;;;;;;;2.90;1.35;;;32.50;81.30;;;;;;5071605;28;20039;-86
2022/08/24 13:29:15;;;;;;;4.32;1.33;;;31.50;70.60;;;;;;5072288;28;20485;-86
2022/08/24 13:32:00;;;;;;;2.65;1.20;;;;;;;;;;5056079;28;20035;-85
2022/08/24 13:34:46;;;;;;;2.55;1.30;;;31.90;72.00;;;;;;5073628;28;20609;-85
2022/08/24 13:37:31;;;;;;;3.55;1.42;;;32.70;83.10;;;;;;5068786;28;20036;-86
2022/08/24 13:40:25;;;;;;;3.13;1.10;;;32.10;83.10;;;;;;5072989;28;20082;-86
2022/08/24 13:43:29;;;;;;;3.08;1.15;;;33.30;82.70;;;;;;5073930;28;20035;-86
2022/08/24 13:46:23;;;;;;;3.72;1.30;;;32.50;91.80;;;;;;5070853;28;20042;-87
2022/08/24 13:49:43;;;;;;;4.00;1.20;;;32.90;68.10;;;;;;5082827;28;20427;-86
2022/08/24 13:52:37;;;;;;;4.60;1.30;;;;;;;;;;5094089;28;20031;-87
2022/08/24 13:55:52;;;;;;;4.03;1.35;;;33.50;67.90;;;;;;5093995;28;20062;-85
2022/08/24 13:58:58;;;;;;;2.35;1.20;;;33.30;88.70;;;;;;5078949;28;20094;-84
2022/08/24 14:02:24;;;;;;;2.75;1.30;;;33.70;76.30;;;;;;5072623;28;20178;-86
2022/08/24 14:05:30;;;;;;;2.97;1.20;;;34.80;83.40;;;;;;5072818;28;20127;-88
2022/08/24 14:08:23;;;;;;;3.55;1.35;;;34.10;65.60;;;;;;5065830;28;20112;-86
2022/08/24 14:11:33;;;;;;;2.42;1.10;;;34.20;65.30;;;;;;5073792;28;20097;-86
2022/08/24 14:14:51;;;;;;;3.38;1.25;;;33.50;80.50;;;;;;5072125;28;20538;-86
2022/08/24 14:17:50;;;;;;;2.72;1.00;;;;;;;;;;5071661;28;20036;-87
2022/08/24 14:20:54;;;;;;;3.10;1.30;;;34.00;79.00;;;;;;5071909;28;20067;-87
2022/08/24 14:23:55;;;;;;;3.13;0.98;;;33.60;78.60;;;;;;5069411;28;20081;-87
2022/08/24 14:26:39;;;;;;;3.75;1.38;;;;;;;;;;5062723;28;20459;-86
2022/08/24 14:29:34;;;;;;;4.68;1.27;;;33.40;75.50;;;;;;5072464;28;20149;-88
2022/08/24 14:32:21;;;;;;;2.85;1.13;;;34.30;77.20;;;;;;5072869;28;20476;-86
2022/08/24 14:35:26;;;;;;;3.13;1.10;;;34.00;76.90;;;;;;5073028;28;20094;-87
2022/08/24 14:38:11;;;;;;;3.20;1.20;;;;;;;;;;5072409;28;20062;-87
2022/08/24 14:41:38;;;;;;;3.17;1.08;;;32.80;78.80;;;;;;5072088;28;20039;-87
2022/08/24 14:44:38;;;;;;;2.28;1.17;;;31.90;65.70;;;;;;5068404;28;20392;-87
2022/08/24 14:47:49;;;;;;;3.35;1.20;;;31.60;66.90;;;;;;5065317;28;20089;-87
2022/08/24 14:50:49;;;;;;;2.42;1.27;;;32.20;76.70;;;;;;5072822;28;20081;-86
2022/08/24 14:53:48;;;;;;;2.63;1.10;;;32.00;75.70;;;;;;5071273;28;20043;-86
2022/08/24 14:56:39;;;;;;;3.25;1.30;;;32.50;75.20;;;;;;5072550;28;20043;-86
2022/08/24 14:59:54;;;;;;;6.53;1.50;;;32.00;66.50;;;;;;5061837;28;20042;-86
2022/08/24 15:02:50;;;;;;;2.10;1.20;;;32.00;65.50;;;;;;5071175;28;20058;-88
2022/08/24 15:05:42;;;;;;;2.38;1.30;;;32.10;76.20;;;;;;5072328;28;20035;-86
2022/08/24 15:08:38;;;;;;;2.77;1.40;;;31.40;74.70;;;;;;5072482;28;20093;-86
2022/08/24 15:11:26;;;;;;;2.40;1.15;;;31.50;67.70;;;;;;5061968;28;20294;-84